createdAt,value
2022-08-18T00:01:02.719Z,88.02
2022-08-18T00:04:16.978Z,88.00
2022-08-18T00:07:29.963Z,88.56
2022-08-18T00:10:31.818Z,88.84
2022-08-18T00:13:33.690Z,88.46
2022-08-18T00:16:36.823Z,89.05
2022-08-18T00:19:47.753Z,89.28
2022-08-18T00:22:52.997Z,89.07
2022-08-18T00:25:55.303Z,88.60
2022-08-18T00:28:56.933Z,89.08
2022-08-18T00:32:00.280Z,89.23
2022-08-18T00:35:05.988Z,89.41
2022-08-18T00:38:08.385Z,90.19
2022-08-18T00:41:26.858Z,90.05
2022-08-18T00:44:28.329Z,90.10
2022-08-18T00:47:41.663Z,90.22
2022-08-18T00:50:55.072Z,90.26
2022-08-18T00:54:00.528Z,90.44
2022-08-18T00:57:04.154Z,90.67
2022-08-18T01:00:13.203Z,90.64
2022-08-18T01:03:22.373Z,91.00
2022-08-18T01:06:29.457Z,91.47
2022-08-18T01:09:31.134Z,91.06
2022-08-18T01:12:46.364Z,91.56
2022-08-18T01:15:48.360Z,91.45
2022-08-18T01:19:10.069Z,91.55
2022-08-18T01:22:14.841Z,91.49
2022-08-18T01:25:38.598Z,91.93
2022-08-18T01:28:44.472Z,92.01
2022-08-18T01:31:54.335Z,91.90
2022-08-18T01:34:56.881Z,92.03
2022-08-18T01:37:58.379Z,91.64
2022-08-18T01:41:28.543Z,91.85
2022-08-18T01:44:23.256Z,91.92
2022-08-18T01:47:25.317Z,91.80
2022-08-18T01:50:26.990Z,91.84
2022-08-18T01:53:29.203Z,91.79
2022-08-18T01:56:32.237Z,91.84
2022-08-18T01:59:35.415Z,92.38
2022-08-18T02:02:37.726Z,92.57
2022-08-18T02:05:40.934Z,92.75
2022-08-18T02:08:46.501Z,92.70
2022-08-18T02:11:56.697Z,92.57
2022-08-18T02:14:58.240Z,92.80
2022-08-18T02:18:02.880Z,92.71
2022-08-18T02:21:10.003Z,92.87
2022-08-18T02:24:12.283Z,92.65
2022-08-18T02:27:16.269Z,92.72
2022-08-18T02:30:18.706Z,92.69
2022-08-18T02:33:20.429Z,92.80
2022-08-18T02:36:25.303Z,92.63
2022-08-18T02:39:29.357Z,92.78
2022-08-18T02:42:32.575Z,92.74
2022-08-18T02:45:34.202Z,92.67
2022-08-18T02:48:35.888Z,92.89
2022-08-18T02:51:38.440Z,92.76
2022-08-18T02:54:40.253Z,92.80
2022-08-18T02:57:44.475Z,92.67
2022-08-18T03:00:47.663Z,92.38
2022-08-18T03:03:49.174Z,92.40
2022-08-18T03:06:50.879Z,92.47
2022-08-18T03:09:52.783Z,92.72
2022-08-18T03:12:55.781Z,92.54
2022-08-18T03:15:57.852Z,92.84
2022-08-18T03:19:00.763Z,92.39
2022-08-18T03:22:02.927Z,92.27
2022-08-18T03:25:05.370Z,92.15
2022-08-18T03:28:08.474Z,92.11
2022-08-18T03:31:11.208Z,92.37
2022-08-18T03:34:13.020Z,92.28
2022-08-18T03:37:16.677Z,92.37
2022-08-18T03:40:18.375Z,92.49
2022-08-18T03:43:49.864Z,92.56
2022-08-18T03:46:43.998Z,92.47
2022-08-18T03:49:46.493Z,92.70
2022-08-18T03:52:48.673Z,92.78
2022-08-18T03:55:52.837Z,92.67
2022-08-18T03:58:57.278Z,92.90
2022-08-18T04:01:59.478Z,93.15
2022-08-18T04:05:01.319Z,93.32
2022-08-18T04:08:07.189Z,93.70
2022-08-18T04:11:15.399Z,93.99
2022-08-18T04:14:19.367Z,93.80
2022-08-18T04:17:25.334Z,93.67
2022-08-18T04:20:27.397Z,93.23
2022-08-18T04:23:39.400Z,92.94
2022-08-18T04:26:47.289Z,93.72
2022-08-18T04:29:50.496Z,93.52
2022-08-18T04:32:52.515Z,93.89
2022-08-18T04:35:56.001Z,93.99
2022-08-18T04:38:58.800Z,94.00
2022-08-18T04:42:01.690Z,94.60
2022-08-18T04:45:07.334Z,95.29
2022-08-18T04:48:08.790Z,95.76
2022-08-18T04:52:30.984Z,95.85
2022-08-18T04:54:39.286Z,95.50
2022-08-18T04:57:43.797Z,95.50
2022-08-18T05:00:47.220Z,95.48
2022-08-18T05:03:50.286Z,95.29
2022-08-18T05:06:52.126Z,95.10
2022-08-18T05:09:54.389Z,95.28
2022-08-18T05:12:56.679Z,95.37
2022-08-18T05:16:11.937Z,95.32
2022-08-18T05:19:25.949Z,95.47
2022-08-18T05:22:31.011Z,95.41
2022-08-18T05:25:33.892Z,95.39
2022-08-18T05:28:37.123Z,95.29
2022-08-18T05:31:40.488Z,95.13
2022-08-18T05:34:42.624Z,95.08
2022-08-18T05:37:47.663Z,95.16
2022-08-18T05:41:06.567Z,94.91
2022-08-18T05:44:09.430Z,94.88
2022-08-18T05:47:14.083Z,94.53
2022-08-18T05:50:17.506Z,94.13
2022-08-18T05:53:20.681Z,93.83
2022-08-18T05:56:45.997Z,92.96
2022-08-18T05:59:49.005Z,93.03
2022-08-18T06:02:55.524Z,92.71
2022-08-18T06:05:59.450Z,92.70
2022-08-18T06:09:05.710Z,92.42
2022-08-18T06:12:14.930Z,91.68
2022-08-18T06:15:18.772Z,91.73
2022-08-18T06:18:31.310Z,91.66
2022-08-18T06:21:39.438Z,91.47
2022-08-18T06:24:44.583Z,91.24
2022-08-18T06:27:55.825Z,91.53
2022-08-18T06:30:59.979Z,91.38
2022-08-18T06:34:12.473Z,90.78
2022-08-18T06:37:18.066Z,91.02
2022-08-18T06:40:19.716Z,91.24
2022-08-18T06:43:21.955Z,90.92
2022-08-18T06:46:25.544Z,90.43
2022-08-18T06:49:38.809Z,90.02
2022-08-18T06:52:54.209Z,89.08
2022-08-18T06:55:59.521Z,89.08
2022-08-18T06:59:22.053Z,88.51
2022-08-18T07:02:27.167Z,88.55
2022-08-18T07:05:31.590Z,88.30
2022-08-18T07:08:35.774Z,89.02
2022-08-18T07:11:43.290Z,88.48
2022-08-18T07:14:48.877Z,88.50
2022-08-18T07:17:50.642Z,87.19
2022-08-18T07:20:55.337Z,87.20
2022-08-18T07:24:23.221Z,87.17
2022-08-18T07:27:22.667Z,87.50
2022-08-18T07:30:29.992Z,87.79
2022-08-18T07:33:31.982Z,87.24
2022-08-18T07:36:40.457Z,87.53
2022-08-18T07:39:47.426Z,87.12
2022-08-18T07:43:01.046Z,87.22
2022-08-18T07:46:06.037Z,87.35
2022-08-18T07:49:07.815Z,86.90
2022-08-18T07:52:44.230Z,86.98
2022-08-18T07:55:42.139Z,86.75
2022-08-18T07:58:46.724Z,86.47
2022-08-18T08:01:52.629Z,86.79
2022-08-18T08:05:00.053Z,87.00
2022-08-18T08:08:10.951Z,86.69
2022-08-18T08:11:19.277Z,86.63
2022-08-18T08:14:26.914Z,86.17
2022-08-18T08:17:32.593Z,85.69
2022-08-18T08:20:39.285Z,84.88
2022-08-18T08:23:47.006Z,85.31
2022-08-18T08:26:52.892Z,84.16
2022-08-18T08:30:01.788Z,84.34
2022-08-18T08:33:08.375Z,83.28
2022-08-18T08:36:12.073Z,83.45
2022-08-18T08:39:18.166Z,82.55
2022-08-18T08:42:30.533Z,82.87
2022-08-18T08:45:37.243Z,83.02
2022-08-18T08:48:41.824Z,82.02
2022-08-18T08:51:47.056Z,81.38
2022-08-18T08:54:56.449Z,80.60
2022-08-18T08:58:02.581Z,80.93
2022-08-18T09:01:05.013Z,80.53
2022-08-18T09:04:17.479Z,78.99
2022-08-18T09:07:27.322Z,79.11
2022-08-18T09:10:43.826Z,79.74
2022-08-18T09:14:00.318Z,79.72
2022-08-18T09:17:12.291Z,79.82
2022-08-18T09:20:33.079Z,79.55
2022-08-18T09:23:39.978Z,79.47
2022-08-18T09:26:44.237Z,79.62
2022-08-18T09:29:49.671Z,78.56
2022-08-18T09:33:02.436Z,78.90
2022-08-18T09:36:28.140Z,79.05
2022-08-18T09:43:14.936Z,77.61
2022-08-18T09:46:36.842Z,77.18
2022-08-18T09:49:53.128Z,76.75
2022-08-18T09:52:57.778Z,76.57
2022-08-18T09:56:05.163Z,76.24
2022-08-18T09:59:40.457Z,76.29
2022-08-18T10:03:01.304Z,75.70
2022-08-18T10:06:19.067Z,76.05
2022-08-18T10:13:00.346Z,74.09
2022-08-18T10:16:10.853Z,74.90
2022-08-18T10:19:17.347Z,74.82
2022-08-18T10:22:35.305Z,75.10
2022-08-18T10:25:41.079Z,74.60
2022-08-18T10:28:55.476Z,74.64
2022-08-18T10:32:22.273Z,74.68
2022-08-18T10:35:52.324Z,73.99
2022-08-18T10:38:54.187Z,74.15
2022-08-18T10:42:00.539Z,74.12
2022-08-18T10:45:06.735Z,73.92
2022-08-18T10:48:16.749Z,73.50
2022-08-18T10:51:25.832Z,72.24
2022-08-18T10:54:36.188Z,72.25
2022-08-18T10:58:07.838Z,72.40
2022-08-18T11:01:20.858Z,72.64
2022-08-18T11:04:34.172Z,72.14
2022-08-18T11:07:44.966Z,71.84
2022-08-18T11:11:27.135Z,71.68
2022-08-18T11:14:24.129Z,71.33
2022-08-18T11:17:42.662Z,70.54
2022-08-18T11:20:47.389Z,71.40
2022-08-18T11:24:01.885Z,70.96
2022-08-18T11:27:04.669Z,71.10
2022-08-18T11:30:17.711Z,71.00
2022-08-18T11:33:22.683Z,70.82
2022-08-18T11:36:32.695Z,70.93
2022-08-18T11:39:42.814Z,70.22
2022-08-18T11:42:57.740Z,69.67
2022-08-18T11:46:04.433Z,70.20
2022-08-18T11:49:16.935Z,69.23
2022-08-18T11:52:34.155Z,69.00
2022-08-18T11:55:37.260Z,69.52
2022-08-18T11:58:43.349Z,68.39
2022-08-18T12:01:51.537Z,68.55
2022-08-18T12:05:08.596Z,67.40
2022-08-18T12:11:50.750Z,68.24
2022-08-18T12:15:02.909Z,69.02
2022-08-18T12:18:10.776Z,69.79
2022-08-18T12:21:22.287Z,70.05
2022-08-18T12:24:26.418Z,70.28
2022-08-18T12:27:33.805Z,70.28
2022-08-18T12:30:35.514Z,70.25
2022-08-18T12:33:48.141Z,70.35
2022-08-18T12:37:01.512Z,69.67
2022-08-18T12:40:06.101Z,69.96
2022-08-18T12:43:08.375Z,69.33
2022-08-18T12:46:11.925Z,68.92
2022-08-18T12:49:17.608Z,69.20
2022-08-18T12:52:21.190Z,68.72
2022-08-18T12:55:28.520Z,68.44
2022-08-18T12:58:30.136Z,67.44
2022-08-18T13:01:32.518Z,67.67
2022-08-18T13:04:34.150Z,67.23
2022-08-18T13:07:37.286Z,67.31
2022-08-18T13:10:45.221Z,66.58
2022-08-18T13:13:56.559Z,67.03
2022-08-18T13:16:58.991Z,66.34
2022-08-18T13:20:01.367Z,66.72
2022-08-18T13:23:04.353Z,66.07
2022-08-18T13:26:13.525Z,65.50
2022-08-18T13:29:17.461Z,65.54
2022-08-18T13:32:19.831Z,65.52
2022-08-18T13:35:24.107Z,66.16
2022-08-18T13:38:28.252Z,66.22
2022-08-18T13:41:32.525Z,65.91
2022-08-18T13:44:35.302Z,65.91
2022-08-18T13:47:38.227Z,65.80
2022-08-18T13:50:40.401Z,65.82
2022-08-18T13:53:57.735Z,65.78
2022-08-18T13:57:04.503Z,65.32
2022-08-18T14:00:17.923Z,66.04
2022-08-18T14:03:42.901Z,65.44
2022-08-18T14:06:47.089Z,65.58
2022-08-18T14:09:59.160Z,65.84
2022-08-18T14:13:11.961Z,65.82
2022-08-18T14:16:22.861Z,65.96
2022-08-18T14:19:46.923Z,65.93
2022-08-18T14:23:09.189Z,66.54
2022-08-18T14:26:31.034Z,66.47
2022-08-18T14:29:45.444Z,66.75
2022-08-18T14:32:49.540Z,66.66
2022-08-18T14:36:05.795Z,66.64
2022-08-18T14:39:08.616Z,66.89
2022-08-18T14:42:12.658Z,66.66
2022-08-18T14:45:26.432Z,66.89
2022-08-18T14:48:37.113Z,66.85
2022-08-18T14:51:42.596Z,67.02
2022-08-18T14:54:46.321Z,67.08
2022-08-18T14:57:54.467Z,67.22
2022-08-18T15:00:57.187Z,67.36
2022-08-18T15:03:59.183Z,67.30
2022-08-18T15:07:02.736Z,67.56
2022-08-18T15:10:15.307Z,67.42
2022-08-18T15:13:19.706Z,67.52
2022-08-18T15:16:31.506Z,67.40
2022-08-18T15:19:58.913Z,67.44
2022-08-18T15:23:13.575Z,67.26
2022-08-18T15:26:25.953Z,67.60
2022-08-18T15:29:30.613Z,67.77
2022-08-18T15:32:32.776Z,67.89
2022-08-18T15:35:35.290Z,67.85
2022-08-18T15:38:40.911Z,67.84
2022-08-18T15:44:53.677Z,67.45
2022-08-18T15:47:56.053Z,67.40
2022-08-18T15:51:06.169Z,67.25
2022-08-18T15:54:14.127Z,67.06
2022-08-18T15:57:34.264Z,66.90
2022-08-18T16:00:42.512Z,66.60
2022-08-18T16:03:48.943Z,67.02
2022-08-18T16:06:52.519Z,66.43
2022-08-18T16:09:54.354Z,66.35
2022-08-18T16:12:56.767Z,65.88
2022-08-18T16:15:59.989Z,65.84
2022-08-18T16:19:01.992Z,66.15
2022-08-18T16:22:06.871Z,65.87
2022-08-18T16:25:09.281Z,65.73
2022-08-18T16:28:13.441Z,65.36
2022-08-18T16:31:16.693Z,65.41
2022-08-18T16:34:21.116Z,65.16
2022-08-18T16:37:22.876Z,65.01
2022-08-18T16:40:24.528Z,65.37
2022-08-18T16:43:32.711Z,65.35
2022-08-18T16:46:37.612Z,65.34
2022-08-18T16:49:39.594Z,65.13
2022-08-18T16:52:41.586Z,65.15
2022-08-18T16:55:43.432Z,65.14
2022-08-18T16:59:06.296Z,65.14
2022-08-18T17:02:29.794Z,65.12
2022-08-18T17:05:34.581Z,65.19
2022-08-18T17:08:36.802Z,65.33
2022-08-18T17:11:51.306Z,65.26
2022-08-18T17:14:54.581Z,65.17
2022-08-18T17:17:57.591Z,65.43
2022-08-18T17:21:05.782Z,65.63
2022-08-18T17:24:08.444Z,65.71
2022-08-18T17:27:26.676Z,66.00
2022-08-18T17:30:31.575Z,66.16
2022-08-18T17:33:36.562Z,66.19
2022-08-18T17:36:41.149Z,66.42
2022-08-18T17:39:47.142Z,66.39
2022-08-18T17:42:51.692Z,66.32
2022-08-18T17:45:54.602Z,66.47
2022-08-18T17:49:00.217Z,66.38
2022-08-18T17:52:03.213Z,66.47
2022-08-18T17:55:09.199Z,66.69
2022-08-18T17:58:21.628Z,66.95
2022-08-18T18:01:24.075Z,66.78
2022-08-18T18:04:27.369Z,66.89
2022-08-18T18:07:33.971Z,66.90
2022-08-18T18:14:20.240Z,67.09
2022-08-18T18:17:26.399Z,67.05
2022-08-18T18:20:38.224Z,67.10
2022-08-18T18:23:41.610Z,67.29
2022-08-18T18:26:46.393Z,67.44
2022-08-18T18:29:53.944Z,67.47
2022-08-18T18:32:58.870Z,67.58
2022-08-18T18:36:04.100Z,67.95
2022-08-18T18:39:11.186Z,67.99
2022-08-18T18:42:18.137Z,68.06
2022-08-18T18:45:21.675Z,68.07
2022-08-18T18:48:45.068Z,68.19
2022-08-18T18:51:54.042Z,68.30
2022-08-18T18:54:59.758Z,68.54
2022-08-18T18:58:11.052Z,68.38
2022-08-18T19:01:17.700Z,68.43
2022-08-18T19:04:24.284Z,68.79
2022-08-18T19:07:32.352Z,69.10
2022-08-18T19:10:35.738Z,69.51
2022-08-18T19:13:43.191Z,69.96
2022-08-18T19:16:49.865Z,70.32
2022-08-18T19:19:53.392Z,70.40
2022-08-18T19:22:59.821Z,70.87
2022-08-18T19:26:02.436Z,70.74
2022-08-18T19:29:13.219Z,71.17
2022-08-18T19:32:20.219Z,71.26
2022-08-18T19:35:23.426Z,70.99
2022-08-18T19:38:31.685Z,71.12
2022-08-18T19:41:39.520Z,71.09
2022-08-18T19:44:55.373Z,71.21
2022-08-18T19:48:05.607Z,71.10
2022-08-18T19:51:12.498Z,70.86
2022-08-18T19:54:29.144Z,71.45
2022-08-18T19:57:43.581Z,71.67
2022-08-18T20:00:52.024Z,71.69
2022-08-18T20:04:05.453Z,71.92
2022-08-18T20:07:31.565Z,72.31
2022-08-18T20:10:47.622Z,72.88
2022-08-18T20:13:54.798Z,72.86
2022-08-18T20:17:12.137Z,73.24
2022-08-18T20:20:16.909Z,73.49
2022-08-18T20:23:33.345Z,73.19
2022-08-18T20:26:42.300Z,74.25
2022-08-18T20:29:46.524Z,74.28
2022-08-18T20:33:07.028Z,74.86
2022-08-18T20:36:13.038Z,74.60
2022-08-18T20:39:35.489Z,75.06
2022-08-18T20:42:49.711Z,75.37
2022-08-18T20:46:22.010Z,75.40
2022-08-18T20:49:28.296Z,75.76
2022-08-18T20:52:37.805Z,75.81
2022-08-18T20:55:44.259Z,75.94
2022-08-18T20:58:51.607Z,76.13
2022-08-18T21:01:56.413Z,76.26
2022-08-18T21:04:59.278Z,76.25
2022-08-18T21:08:04.763Z,76.21
2022-08-18T21:11:08.704Z,76.67
2022-08-18T21:14:12.862Z,77.01
2022-08-18T21:17:20.543Z,77.53
2022-08-18T21:20:23.605Z,77.96
2022-08-18T21:23:29.482Z,77.05
2022-08-18T21:26:31.947Z,78.17
2022-08-18T21:29:44.310Z,78.12
2022-08-18T21:32:50.821Z,78.59
2022-08-18T21:35:53.871Z,78.53
2022-08-18T21:39:05.804Z,78.51
2022-08-18T21:42:17.961Z,78.96
2022-08-18T21:45:23.402Z,78.81
2022-08-18T21:48:30.630Z,79.09
2022-08-18T21:51:33.320Z,79.03
2022-08-18T21:54:35.110Z,79.23
2022-08-18T21:57:50.455Z,79.52
2022-08-18T22:01:07.723Z,79.36
2022-08-18T22:04:19.389Z,79.54
2022-08-18T22:07:34.623Z,79.71
2022-08-18T22:10:58.613Z,79.95
2022-08-18T22:14:12.203Z,79.56
2022-08-18T22:17:25.543Z,79.80
2022-08-18T22:20:44.615Z,79.88
2022-08-18T22:24:04.947Z,79.96
2022-08-18T22:27:11.763Z,79.97
2022-08-18T22:30:13.465Z,79.96
2022-08-18T22:33:15.457Z,80.32
2022-08-18T22:36:20.689Z,80.21
2022-08-18T22:39:26.170Z,80.23
2022-08-18T22:42:29.068Z,80.85
2022-08-18T22:45:34.072Z,81.08
2022-08-18T22:48:35.821Z,81.31
2022-08-18T22:51:38.937Z,81.44
2022-08-18T22:54:40.680Z,81.89
2022-08-18T22:57:45.606Z,82.49
2022-08-18T23:00:51.379Z,82.59
2022-08-18T23:03:53.688Z,82.95
2022-08-18T23:06:56.966Z,82.96
2022-08-18T23:09:59.240Z,83.40
2022-08-18T23:13:04.584Z,82.99
2022-08-18T23:16:13.289Z,82.59
2022-08-18T23:19:29.243Z,82.24
2022-08-18T23:22:33.341Z,82.57
2022-08-18T23:25:35.115Z,82.38
2022-08-18T23:28:36.789Z,82.13
2022-08-18T23:31:38.847Z,82.30
2022-08-18T23:34:40.768Z,82.11
2022-08-18T23:37:44.285Z,82.01
2022-08-18T23:40:48.705Z,81.89
2022-08-18T23:43:53.504Z,82.21
2022-08-18T23:46:55.788Z,82.21
2022-08-18T23:49:58.073Z,81.91
2022-08-18T23:53:03.025Z,81.89
2022-08-18T23:56:07.693Z,81.91
2022-08-18T23:59:10.180Z,81.75
